1898 Hurricane NOT_NAMED (1898249N11333)


IBTrACS version v04r00. Visit IBTrACS website for data access.
Please direct all questions to the IBTrACS Q and A forum

Storm track - Intensity - Wind Radii - Intensity Data - Source Data - All data

Summary Information

Storm ID 1898249N11333
Start Sep 5 12Z
Landfall Sep 20 06Z
Max Intensity 105 kt (Sep 11 18Z), 945 mb (Sep 18 18Z)
End Sep 20 12Z
ATCF IDs AL041898
Track status Best track data.

Storm track plot

Map of storm track

Intensity plots

Map of storm track

Radial wind information

No radial wind information for this storm


Position and Intensity Table

BASIN ISO_TIME_________ NATURE LAT LON WMO WIND WMO PRES USA WIND USA PRES MLC WIND MLC PRES
degrees north degrees east kts mb kts mb kts mb
NA 1898-09-05 12:00:00 TS 11.20 -26.90 35 35
NA 15:00:00 TS 11.31 -27.95 35
NA 18:00:00 TS 11.40 -29.00 35 35
NA 21:00:00 TS 11.46 -30.02 37
NA 1898-09-06 00:00:00 TS 11.50 -31.00 40 40
NA 03:00:00 TS 11.55 -31.93 42
NA 06:00:00 TS 11.60 -32.80 45 45
NA 09:00:00 TS 11.66 -33.63 50
NA 12:00:00 TS 11.70 -34.40 55 55
NA 15:00:00 TS 11.71 -35.12 60
NA 18:00:00 TS 11.70 -35.80 65 65
NA 21:00:00 TS 11.69 -36.51 67
NA 1898-09-07 00:00:00 TS 11.70 -37.20 70 70
NA 03:00:00 TS 11.74 -37.85 72
NA 06:00:00 TS 11.80 -38.50 75 75
NA 09:00:00 TS 11.86 -39.18 77
NA 12:00:00 TS 11.90 -39.90 80 80
NA 15:00:00 TS 11.90 -40.64 80
NA 18:00:00 TS 11.90 -41.40 80 80
NA 21:00:00 TS 11.95 -42.19 82
NA 1898-09-08 00:00:00 TS 12.00 -43.00 85 85
NA 03:00:00 TS 12.01 -43.80 85
NA 06:00:00 TS 12.00 -44.60 85 85
NA 09:00:00 TS 12.00 -45.41 85
NA 12:00:00 TS 12.00 -46.20 85 85
NA 15:00:00 TS 12.00 -46.96 85
NA 18:00:00 TS 12.00 -47.70 85 85
NA 21:00:00 TS 12.00 -48.42 85
NA 1898-09-09 00:00:00 TS 12.00 -49.10 85 85
NA 03:00:00 TS 12.00 -49.71 85
NA 06:00:00 TS 12.00 -50.30 85 85
NA 09:00:00 TS 12.00 -50.91 85
NA 12:00:00 TS 11.89 -51.06 85 85 35
NA 15:00:00 TS 11.82 -51.29 85 40
NA 18:00:00 TS 11.78 -51.67 85 85 45
NA 21:00:00 TS 11.78 -52.22 85 50
NA 1898-09-10 00:00:00 TS 11.83 -53.00 85 85 55
NA 03:00:00 TS 11.88 -53.77 85 60
NA 06:00:00 TS 11.93 -54.53 85 85 65
NA 09:00:00 TS 11.98 -55.29 85 70
NA 12:00:00 TS 12.03 -56.00 85 85 75
NA 15:00:00 TS 12.07 -56.64 87 80
NA 18:00:00 TS 12.13 -57.23 90 90 85
NA 21:00:00 TS 12.24 -57.81 92 87
NA 1898-09-11 00:00:00 TS 12.37 -58.37 95 95 90
NA 03:00:00 TS 12.48 -58.93 95 95
NA 06:00:00 TS 12.60 -59.50 95 95 100
NA 09:00:00 TS 12.72 -60.09 95 100
NA 12:00:00 TS 12.90 -60.63 95 95 100
NA 15:00:00 TS 13.20 -61.09 95 102
NA 18:00:00 TS 13.60 -61.50 95 965 95 965 105 965
NA 21:00:00 TS 14.02 -61.93 95 105
NA 1898-09-12 00:00:00 TS 14.50 -62.30 95 95 105
NA 03:00:00 TS 15.03 -62.57 95 102
NA 06:00:00 TS 15.60 -62.80 95 95 100
NA 09:00:00 TS 16.15 -63.11 95 97
NA 12:00:00 TS 16.73 -63.37 95 95 95
NA 15:00:00 TS 17.35 -63.51 95 95
NA 18:00:00 TS 18.00 -63.57 95 95 95
NA 21:00:00 TS 18.70 -63.57 95 95
NA 1898-09-13 00:00:00 TS 19.33 -63.53 95 95 95
NA 03:00:00 TS 19.81 -63.48 95 95
NA 06:00:00 TS 20.20 -63.47 95 95 95
NA 09:00:00 TS 20.61 -63.57 95 95
NA 12:00:00 TS 21.00 -63.70 95 95 95
NA 15:00:00 TS 21.36 -63.78 95 95
NA 18:00:00 TS 21.70 -63.87 95 95 95
NA 21:00:00 TS 22.00 -63.98 92 92
NA 1898-09-14 00:00:00 TS 22.30 -64.10 90 90 90
NA 03:00:00 TS 22.61 -64.22 87 90
NA 06:00:00 TS 22.93 -64.37 85 85 90
NA 09:00:00 TS 23.29 -64.57 85 90
NA 12:00:00 TS 23.60 -64.77 85 85 90
NA 15:00:00 TS 23.79 -64.88 85 90
NA 18:00:00 TS 23.93 -64.97 85 85 90
NA 21:00:00 TS 24.13 -65.09 85 90
NA 1898-09-15 00:00:00 TS 24.33 -65.23 85 85 90
NA 03:00:00 TS 24.52 -65.38 85 90
NA 06:00:00 TS 24.70 -65.53 85 85 90
NA 09:00:00 TS 24.84 -65.65 85 87
NA 12:00:00 TS 25.00 -65.80 85 85 85
NA 15:00:00 TS 25.21 -66.03 85 85
NA 18:00:00 TS 25.43 -66.30 85 85 85
NA 21:00:00 TS 25.65 -66.55 85 85
NA 1898-09-16 00:00:00 TS 25.87 -66.80 85 85 85
NA 03:00:00 TS 26.08 -67.09 85 85
NA 06:00:00 TS 26.30 -67.37 85 85 85
NA 09:00:00 TS 26.50 -67.61 85 85
NA 12:00:00 TS 26.73 -67.83 85 85 85
NA 15:00:00 TS 27.04 -68.07 85 85
NA 18:00:00 TS 27.40 -68.33 85 85 85
NA 21:00:00 TS 27.80 -68.63 85 85
NA 1898-09-17 00:00:00 TS 28.23 -68.93 85 85 85
NA 03:00:00 TS 28.66 -69.25 85 85
NA 06:00:00 TS 29.10 -69.53 85 85 85
NA 09:00:00 TS 29.54 -69.76 85 85
NA 12:00:00 TS 30.00 -69.87 85 85 85
NA 15:00:00 TS 30.49 -69.82 85 87
NA 18:00:00 TS 31.00 -69.67 85 85 90
NA 21:00:00 TS 31.52 -69.52 85 90
NA 1898-09-18 00:00:00 TS 32.07 -69.30 85 85 90
NA 03:00:00 TS 32.64 -68.97 85 92
NA 06:00:00 TS 33.20 -68.57 85 85 95
NA 09:00:00 TS 33.70 -68.24 85 97
NA 12:00:00 TS 34.23 -67.77 85 85 100
NA 15:00:00 TS 34.87 -66.97 85 102
NA 18:00:00 TS 35.57 -66.03 85 85 105 945
NA 21:00:00 TS 36.30 -65.22 85 105 946
NA 1898-09-19 00:00:00 TS 36.98 -64.43 85 85 105 947
NA 03:00:00 TS 37.66 -63.66 82 105
NA 06:00:00 TS 38.36 -63.06 80 80 105
NA 09:00:00 TS 39.05 -62.73 77
NA 12:00:00 TS 40.00 -62.00 75 75
NA 15:00:00 TS 41.02 -61.19 70
NA 18:00:00 TS 42.20 -60.30 65 65
NA 21:00:00 TS 43.56 -59.32 60
NA 1898-09-20 00:00:00 ET 45.10 -58.30 55 55
NA 03:00:00 ET 46.75 -57.31 50
NA 06:00:00 ET 48.50 -56.30 45 45
NA 09:00:00 ET 50.25 -55.24 42
NA 12:00:00 ET 52.00 -54.10 40 40

Source Information

Agency Information
USA hurdat2-1851-2018-051019.txt:Line=8910:UNNAMED
TOKYO
CMA
HKO
NEWDELHI
REUNION
BOM
NADI
WELLINGTON
DS824
TD9636
TD9635
NEUMANN
MLC

All available IBTrACS Data

SEASON BASIN SUBBASIN ISO_TIME_________ NATURE LAT LON WMO WIND WMO PRES WMO AGENCY DIST2LAND LANDFALL IFLAG USA AGENCY USA ATCF_ID USA LAT USA LON USA STATUS USA WIND USA PRES USA SSHS MLC LAT MLC LON MLC CLASS MLC WIND MLC PRES STORM SPEED STORM DIR
Year degrees north degrees east kts mb km km degrees north degrees east kts mb 1 degrees north degrees east kts mb kts degrees
1898 NA NA 1898-09-05 12:00:00 TS 11.20 -26.90 35 hurdat_atl 1091 1091 O_____________ hurdat_atl AL041898 11.20 -26.90 TS 35 0 21 276
1898 NA NA 15:00:00 TS 11.31 -27.95 1200 1200 P_____________ AL041898 11.31 -27.95 TS 35 0 21 276
1898 NA NA 18:00:00 TS 11.40 -29.00 35 hurdat_atl 1299 1299 O_____________ hurdat_atl AL041898 11.40 -29.00 TS 35 0 20 274
1898 NA NA 21:00:00 TS 11.46 -30.02 1400 1400 P_____________ AL041898 11.46 -30.02 TS 37 0 20 273
1898 NA NA 1898-09-06 00:00:00 TS 11.50 -31.00 40 hurdat_atl 1505 1505 O_____________ hurdat_atl AL041898 11.50 -31.00 TS 40 0 19 273
1898 NA NA 03:00:00 TS 11.55 -31.93 1600 1600 P_____________ AL041898 11.55 -31.93 TS 42 0 18 273
1898 NA NA 06:00:00 TS 11.60 -32.80 45 hurdat_atl 1693 1693 O_____________ hurdat_atl AL041898 11.60 -32.80 TS 45 0 17 274
1898 NA NA 09:00:00 TS 11.66 -33.63 1773 1741 P_____________ AL041898 11.66 -33.63 TS 50 0 16 274
1898 NA NA 12:00:00 TS 11.70 -34.40 55 hurdat_atl 1741 1716 O_____________ hurdat_atl AL041898 11.70 -34.40 TS 55 0 15 272
1898 NA NA 15:00:00 TS 11.71 -35.12 1716 1694 P_____________ AL041898 11.71 -35.12 TS 60 0 14 270
1898 NA NA 18:00:00 TS 11.70 -35.80 65 hurdat_atl 1694 1676 O_____________ hurdat_atl AL041898 11.70 -35.80 HU 65 1 14 269
1898 NA NA 21:00:00 TS 11.69 -36.51 1676 1660 P_____________ AL041898 11.69 -36.51 HU 67 1 14 270
1898 NA NA 1898-09-07 00:00:00 TS 11.70 -37.20 70 hurdat_atl 1660 1650 O_____________ hurdat_atl AL041898 11.70 -37.20 HU 70 1 13 272
1898 NA NA 03:00:00 TS 11.74 -37.85 1650 1640 P_____________ AL041898 11.74 -37.85 HU 72 1 13 274
1898 NA NA 06:00:00 TS 11.80 -38.50 75 hurdat_atl 1640 1584 O_____________ hurdat_atl AL041898 11.80 -38.50 HU 75 1 13 275
1898 NA NA 09:00:00 TS 11.86 -39.18 1580 1516 P_____________ AL041898 11.86 -39.18 HU 77 1 14 274
1898 NA NA 12:00:00 TS 11.90 -39.90 80 hurdat_atl 1516 1453 O_____________ hurdat_atl AL041898 11.90 -39.90 HU 80 1 14 272
1898 NA NA 15:00:00 TS 11.90 -40.64 1453 1383 P_____________ AL041898 11.90 -40.64 HU 80 1 15 270
1898 NA NA 18:00:00 TS 11.90 -41.40 80 hurdat_atl 1383 1323 O_____________ hurdat_atl AL041898 11.90 -41.40 HU 80 1 15 272
1898 NA NA 21:00:00 TS 11.95 -42.19 1314 1256 P_____________ AL041898 11.95 -42.19 HU 82 1 16 274
1898 NA NA 1898-09-08 00:00:00 TS 12.00 -43.00 85 hurdat_atl 1256 1194 O_____________ hurdat_atl AL041898 12.00 -43.00 HU 85 2 16 272
1898 NA NA 03:00:00 TS 12.01 -43.80 1194 1134 P_____________ AL041898 12.01 -43.80 HU 85 2 16 270
1898 NA NA 06:00:00 TS 12.00 -44.60 85 hurdat_atl 1134 1079 O_____________ hurdat_atl AL041898 12.00 -44.60 HU 85 2 16 270
1898 NA NA 09:00:00 TS 12.00 -45.41 1079 1029 P_____________ AL041898 12.00 -45.41 HU 85 2 16 270
1898 NA NA 12:00:00 TS 12.00 -46.20 85 hurdat_atl 1029 986 O_____________ hurdat_atl AL041898 12.00 -46.20 HU 85 2 15 270
1898 NA NA 15:00:00 TS 12.00 -46.96 979 933 P_____________ AL041898 12.00 -46.96 HU 85 2 15 270
1898 NA NA 18:00:00 TS 12.00 -47.70 85 hurdat_atl 933 890 O_____________ hurdat_atl AL041898 12.00 -47.70 HU 85 2 14 270
1898 NA NA 21:00:00 TS 12.00 -48.42 890 853 P_____________ AL041898 12.00 -48.42 HU 85 2 14 270
1898 NA NA 1898-09-09 00:00:00 TS 12.00 -49.10 85 hurdat_atl 853 824 O_____________ hurdat_atl AL041898 12.00 -49.10 HU 85 2 13 270
1898 NA NA 03:00:00 TS 12.00 -49.71 824 799 P_____________ AL041898 12.00 -49.71 HU 85 2 12 270
1898 NA NA 06:00:00 TS 12.00 -50.30 85 hurdat_atl 799 773 O_____________ hurdat_atl AL041898 12.00 -50.30 HU 85 2 12 270
1898 NA NA 09:00:00 TS 12.00 -50.91 773 758 P_____________ AL041898 12.00 -50.91 HU 85 2 7 261
1898 NA NA 12:00:00 TS 11.89 -51.06 85 hurdat_atl 753 733 O____________O hurdat_atl AL041898 12.00 -51.50 HU 85 2 11.00 -47.50 TS 35 4 244
1898 NA NA 15:00:00 TS 11.82 -51.29 733 720 P____________P AL041898 11.99 -52.03 HU 85 2 11.11 -48.36 TS 40 6 260
1898 NA NA 18:00:00 TS 11.78 -51.67 85 hurdat_atl 715 696 O____________O hurdat_atl AL041898 12.00 -52.60 HU 85 2 11.20 -49.20 TS 45 9 268
1898 NA NA 21:00:00 TS 11.78 -52.22 696 673 P____________P AL041898 12.04 -53.32 HU 85 2 11.26 -50.01 TS 50 13 272
1898 NA NA 1898-09-10 00:00:00 TS 11.83 -53.00 85 hurdat_atl 673 670 O____________O hurdat_atl AL041898 12.10 -54.10 HU 85 2 11.30 -50.80 TS 55 15 274
1898 NA NA 03:00:00 TS 11.88 -53.77 673 658 P____________P AL041898 12.15 -54.86 HU 85 2 11.35 -51.60 TS 60 15 274
1898 NA NA 06:00:00 TS 11.93 -54.53 85 hurdat_atl 658 611 O____________O hurdat_atl AL041898 12.20 -55.60 HU 85 2 11.40 -52.40 HU 65 15 274
1898 NA NA 09:00:00 TS 11.98 -55.29 604 555 P____________P AL041898 12.26 -56.34 HU 85 2 11.43 -53.19 HU 70 14 274
1898 NA NA 12:00:00 TS 12.03 -56.00 85 hurdat_atl 555 504 O____________O hurdat_atl AL041898 12.30 -57.00 HU 85 2 11.50 -54.00 HU 75 13 274
1898 NA NA 15:00:00 TS 12.07 -56.64 504 443 P____________P AL041898 12.29 -57.54 HU 87 2 11.63 -54.85 HU 80 12 275
1898 NA NA 18:00:00 TS 12.13 -57.23 90 hurdat_atl 443 387 O____________O hurdat_atl AL041898 12.30 -58.00 HU 90 2 11.80 -55.70 HU 85 12 278
1898 NA NA 21:00:00 TS 12.24 -57.81 387 344 P____________P AL041898 12.38 -58.46 HU 92 2 11.95 -56.51 HU 87 11 282
1898 NA NA 1898-09-11 00:00:00 TS 12.37 -58.37 95 hurdat_atl 341 305 O____________O hurdat_atl AL041898 12.50 -58.90 HU 95 2 12.10 -57.30 HU 90 11 282
1898 NA NA 03:00:00 TS 12.48 -58.93 305 268 P____________P AL041898 12.59 -59.35 HU 95 2 12.25 -58.10 HU 95 11 282
1898 NA CS 06:00:00 TS 12.60 -59.50 95 hurdat_atl 268 244 O____________O hurdat_atl AL041898 12.70 -59.80 HU 95 2 12.40 -58.90 MH 100 12 282
1898 NA CS 09:00:00 TS 12.72 -60.09 244 240 P____________P AL041898 12.82 -60.26 HU 95 2 12.51 -59.75 MH 100 11 285
1898 NA CS 12:00:00 TS 12.90 -60.63 95 hurdat_atl 250 248 O____________O hurdat_atl AL041898 13.00 -60.70 HU 95 2 12.70 -60.50 MH 100 11 297
1898 NA CS 15:00:00 TS 13.20 -61.09 279 279 P____________P AL041898 13.25 -61.12 HU 95 2 13.10 -61.05 MH 102 11 310
1898 NA CS 18:00:00 TS 13.60 -61.50 95 965 hurdat_atl 324 324 O____________O hurdat_atl AL041898 13.60 -61.50 HU 95 965 2 13.60 -61.50 MH 105 965 12 315
1898 NA CS 21:00:00 TS 14.02 -61.93 370 370 P____________P AL041898 14.00 -61.87 HU 95 2 14.05 -62.05 MH 105 12 319
1898 NA CS 1898-09-12 00:00:00 TS 14.50 -62.30 95 hurdat_atl 425 425 O____________O hurdat_atl AL041898 14.50 -62.20 HU 95 2 14.50 -62.50 MH 105 12 329
1898 NA CS 03:00:00 TS 15.03 -62.57 478 416 P____________P AL041898 15.07 -62.52 HU 95 2 14.96 -62.67 MH 102 12 336
1898 NA CS 06:00:00 TS 15.60 -62.80 95 hurdat_atl 416 354 O____________O hurdat_atl AL041898 15.70 -62.80 HU 95 2 15.40 -62.80 MH 100 12 335
1898 NA CS 09:00:00 TS 16.15 -63.11 347 287 P____________P AL041898 16.34 -63.08 HU 95 2 15.78 -63.16 MH 97 13 334
1898 NA CS 12:00:00 TS 16.73 -63.37 95 hurdat_atl 287 244 O____________O hurdat_atl AL041898 17.00 -63.30 HU 95 2 16.20 -63.50 HU 95 13 342
1898 NA CS 15:00:00 TS 17.35 -63.51 239 212 P____________P AL041898 17.64 -63.43 HU 95 2 16.77 -63.67 HU 95 13 351
1898 NA CS 18:00:00 TS 18.00 -63.57 95 hurdat_atl 212 211 O____________O hurdat_atl AL041898 18.30 -63.50 HU 95 2 17.40 -63.70 HU 95 14 357
1898 NA CS 21:00:00 TS 18.70 -63.57 213 213 P____________P AL041898 19.04 -63.56 HU 95 2 18.00 -63.60 HU 95 13 2
1898 NA NA 1898-09-13 00:00:00 TS 19.33 -63.53 95 hurdat_atl 242 242 O____________O hurdat_atl AL041898 19.70 -63.60 HU 95 2 18.60 -63.40 HU 95 11 5
1898 NA NA 03:00:00 TS 19.81 -63.48 270 270 P____________P AL041898 20.11 -63.64 HU 95 2 19.20 -63.16 HU 95 9 5
1898 NA NA 06:00:00 TS 20.20 -63.47 95 hurdat_atl 298 298 O____________O hurdat_atl AL041898 20.40 -63.70 HU 95 2 19.80 -63.00 HU 95 8 354
1898 NA NA 09:00:00 TS 20.61 -63.57 323 323 P____________P AL041898 20.70 -63.80 HU 95 2 20.44 -63.10 HU 95 8 345
1898 NA NA 12:00:00 TS 21.00 -63.70 95 hurdat_atl 352 352 O____________O hurdat_atl AL041898 21.00 -63.90 HU 95 2 21.00 -63.30 HU 95 8 345
1898 NA NA 15:00:00 TS 21.36 -63.78 384 384 P____________P AL041898 21.35 -63.95 HU 95 2 21.39 -63.45 HU 95 7 348
1898 NA NA 18:00:00 TS 21.70 -63.87 95 hurdat_atl 409 409 O____________O hurdat_atl AL041898 21.70 -64.00 HU 95 2 21.70 -63.60 HU 95 7 344
1898 NA NA 21:00:00 TS 22.00 -63.98 435 435 P____________P AL041898 22.01 -64.09 HU 92 2 22.00 -63.74 HU 92 6 340
1898 NA NA 1898-09-14 00:00:00 TS 22.30 -64.10 90 hurdat_atl 463 463 O____________O hurdat_atl AL041898 22.30 -64.20 HU 90 2 22.30 -63.90 HU 90 7 339
1898 NA NA 03:00:00 TS 22.61 -64.22 491 491 P____________P AL041898 22.59 -64.29 HU 87 2 22.65 -64.09 HU 90 7 339
1898 NA NA 06:00:00 TS 22.93 -64.37 85 hurdat_atl 518 518 O____________O hurdat_atl AL041898 22.90 -64.40 HU 85 2 23.00 -64.30 HU 90 8 335
1898 NA NA 09:00:00 TS 23.29 -64.57 557 557 P____________P AL041898 23.27 -64.61 HU 85 2 23.32 -64.50 HU 90 8 331
1898 NA NA 12:00:00 TS 23.60 -64.77 85 hurdat_atl 587 587 O____________O hurdat_atl AL041898 23.60 -64.80 HU 85 2 23.60 -64.70 HU 90 6 331
1898 NA NA 15:00:00 TS 23.79 -64.88 608 608 P____________P AL041898 23.77 -64.86 HU 85 2 23.82 -64.92 HU 90 4 331
1898 NA NA 18:00:00 TS 23.93 -64.97 85 hurdat_atl 618 618 O____________O hurdat_atl AL041898 23.90 -64.90 HU 85 2 24.00 -65.10 HU 90 4 330
1898 NA NA 21:00:00 TS 24.13 -65.09 639 639 P____________P AL041898 24.09 -65.03 HU 85 2 24.21 -65.21 HU 90 5 329
1898 NA NA 1898-09-15 00:00:00 TS 24.33 -65.23 85 hurdat_atl 661 661 O____________O hurdat_atl AL041898 24.30 -65.20 HU 85 2 24.40 -65.30 HU 90 5 326
1898 NA NA 03:00:00 TS 24.52 -65.38 682 682 P____________P AL041898 24.51 -65.35 HU 85 2 24.56 -65.45 HU 90 5 323
1898 NA NA 06:00:00 TS 24.70 -65.53 85 hurdat_atl 704 704 O____________O hurdat_atl AL041898 24.70 -65.50 HU 85 2 24.70 -65.60 HU 90 4 323
1898 NA NA 09:00:00 TS 24.84 -65.65 715 715 P____________P AL041898 24.85 -65.64 HU 85 2 24.83 -65.67 HU 87 4 321
1898 NA NA 12:00:00 TS 25.00 -65.80 85 hurdat_atl 731 731 O____________O hurdat_atl AL041898 25.00 -65.80 HU 85 2 25.00 -65.80 HU 85 5 316
1898 NA NA 15:00:00 TS 25.21 -66.03 741 737 P____________P AL041898 25.19 -65.99 HU 85 2 25.24 -66.11 HU 85 6 314
1898 NA NA 18:00:00 TS 25.43 -66.30 85 hurdat_atl 748 748 O____________O hurdat_atl AL041898 25.40 -66.20 HU 85 2 25.50 -66.50 HU 85 6 314
1898 NA NA 21:00:00 TS 25.65 -66.55 760 760 P____________P AL041898 25.60 -66.39 HU 85 2 25.75 -66.85 HU 85 6 314
1898 NA NA 1898-09-16 00:00:00 TS 25.87 -66.80 85 hurdat_atl 776 772 O____________O hurdat_atl AL041898 25.80 -66.60 HU 85 2 26.00 -67.20 HU 85 7 312
1898 NA NA 03:00:00 TS 26.08 -67.09 784 781 P____________P AL041898 26.00 -66.85 HU 85 2 26.25 -67.56 HU 85 7 310
1898 NA NA 06:00:00 TS 26.30 -67.37 85 hurdat_atl 794 794 O____________O hurdat_atl AL041898 26.20 -67.10 HU 85 2 26.50 -67.90 HU 85 6 312
1898 NA NA 09:00:00 TS 26.50 -67.61 807 800 P____________P AL041898 26.38 -67.31 HU 85 2 26.73 -68.20 HU 85 6 316
1898 NA NA 12:00:00 TS 26.73 -67.83 85 hurdat_atl 810 810 O____________O hurdat_atl AL041898 26.60 -67.50 HU 85 2 27.00 -68.50 HU 85 7 322
1898 NA NA 15:00:00 TS 27.04 -68.07 816 816 P____________P AL041898 26.86 -67.69 HU 85 2 27.39 -68.85 HU 85 8 326
1898 NA NA 18:00:00 TS 27.40 -68.33 85 hurdat_atl 840 834 O____________O hurdat_atl AL041898 27.20 -67.90 HU 85 2 27.80 -69.20 HU 85 9 327
1898 NA NA 21:00:00 TS 27.80 -68.63 861 855 P____________P AL041898 27.63 -68.19 HU 85 2 28.15 -69.49 HU 85 10 327
1898 NA NA 1898-09-17 00:00:00 TS 28.23 -68.93 85 hurdat_atl 884 884 O____________O hurdat_atl AL041898 28.10 -68.50 HU 85 2 28.50 -69.80 HU 85 10 327
1898 NA NA 03:00:00 TS 28.66 -69.25 916 907 P____________P AL041898 28.54 -68.77 HU 85 2 28.90 -70.21 HU 85 10 329
1898 NA NA 06:00:00 TS 29.10 -69.53 85 hurdat_atl 907 855 O____________O hurdat_atl AL041898 29.00 -69.00 HU 85 2 29.30 -70.60 HU 85 10 333
1898 NA NA 09:00:00 TS 29.54 -69.76 855 810 P____________P AL041898 29.50 -69.20 HU 85 2 29.62 -70.88 HU 85 9 342
1898 NA NA 12:00:00 TS 30.00 -69.87 85 hurdat_atl 810 780 O____________O hurdat_atl AL041898 30.00 -69.30 HU 85 2 30.00 -71.00 HU 85 10 356
1898 NA NA 15:00:00 TS 30.49 -69.82 780 752 P____________P AL041898 30.45 -69.25 HU 85 2 30.56 -70.95 HU 87 10 10
1898 NA NA 18:00:00 TS 31.00 -69.67 85 hurdat_atl 752 732 O____________O hurdat_atl AL041898 30.90 -69.10 HU 85 2 31.20 -70.80 HU 90 11 14
1898 NA NA 21:00:00 TS 31.52 -69.52 732 710 P____________P AL041898 31.38 -68.94 HU 85 2 31.80 -70.69 HU 90 11 16
1898 NA NA 1898-09-18 00:00:00 TS 32.07 -69.30 85 hurdat_atl 703 693 O____________O hurdat_atl AL041898 31.90 -68.70 HU 85 2 32.40 -70.50 HU 90 12 23
1898 NA NA 03:00:00 TS 32.64 -68.97 694 690 P____________P AL041898 32.45 -68.38 HU 85 2 33.01 -70.14 HU 92 13 29
1898 NA NA 06:00:00 TS 33.20 -68.57 85 hurdat_atl 694 692 O____________O hurdat_atl AL041898 33.00 -68.00 HU 85 2 33.60 -69.70 HU 95 12 30
1898 NA NA 09:00:00 TS 33.70 -68.24 705 701 P____________P AL041898 33.49 -67.64 HU 85 2 34.12 -69.43 HU 97 12 33
1898 NA NA 12:00:00 TS 34.23 -67.77 85 hurdat_atl 721 721 O____________O hurdat_atl AL041898 34.00 -67.20 HU 85 2 34.70 -68.90 MH 100 16 42
1898 NA NA 15:00:00 TS 34.87 -66.97 775 768 P____________P AL041898 34.57 -66.58 HU 85 2 35.46 -67.74 MH 102 20 47
1898 NA NA 18:00:00 TS 35.57 -66.03 85 hurdat_atl 762 724 O____________O hurdat_atl AL041898 35.20 -65.90 HU 85 2 36.30 -66.30 MH 105 945 20 45
1898 NA NA 21:00:00 TS 36.30 -65.22 729 706 P____________P AL041898 35.87 -65.30 HU 85 2 37.15 -65.06 MH 105 946 19 42
1898 NA NA 1898-09-19 00:00:00 TS 36.98 -64.43 85 hurdat_atl 709 670 O____________O hurdat_atl AL041898 36.60 -64.70 HU 85 2 38.00 -63.70 MH 105 947 18 42
1898 NA NA 03:00:00 TS 37.66 -63.66 659 607 P____________P AL041898 37.37 -64.06 HU 82 1 38.82 -62.09 MH 105 18 38
1898 NA NA 06:00:00 TS 38.36 -63.06 80 hurdat_atl 596 542 O____________O hurdat_atl AL041898 38.20 -63.40 HU 80 1 39.60 -60.30 MH 105 16 28
1898 NA NA 09:00:00 TS 39.05 -62.73 535 479 P_____________ AL041898 39.05 -62.73 HU 77 1 MH 18 26
1898 NA NA 12:00:00 TS 40.00 -62.00 75 hurdat_atl 475 425 O_____________ hurdat_atl AL041898 40.00 -62.00 HU 75 1 23 31
1898 NA NA 15:00:00 TS 41.02 -61.19 425 344 P_____________ AL041898 41.02 -61.19 HU 70 1 25 30
1898 NA NA 18:00:00 TS 42.20 -60.30 65 hurdat_atl 336 232 O_____________ hurdat_atl AL041898 42.20 -60.30 HU 65 1 29 29
1898 NA NA 21:00:00 TS 43.56 -59.32 227 159 P_____________ AL041898 43.56 -59.32 HU 60 0 32 27
1898 NA NA 1898-09-20 00:00:00 ET 45.10 -58.30 55 hurdat_atl 160 96 O_____________ hurdat_atl AL041898 45.10 -58.30 EX 55 -4 35 24
1898 NA NA 03:00:00 ET 46.75 -57.31 83 0 P_____________ AL041898 46.75 -57.31 EX 50 -4 37 22
1898 NA NA 06:00:00 ET 48.50 -56.30 45 hurdat_atl 0 0 O_____________ hurdat_atl AL041898 48.50 -56.30 EX 45 -4 38 21
1898 NA NA 09:00:00 ET 50.25 -55.24 56 56 P_____________ AL041898 50.25 -55.24 EX 42 -4 38 22
1898 NA NA 12:00:00 ET 52.00 -54.10 40 hurdat_atl 109 O_____________ hurdat_atl AL041898 52.00 -54.10 EX 40 -4 38 22